sensor_id;sensor_type;location;lat;lon;timestamp;temperature;humidity
12893;DHT22;6514;48.606;9.222;2023-11-18T00:01:24;4.60;99.90
12893;DHT22;6514;48.606;9.222;2023-11-18T00:03:52;4.50;99.90
12893;DHT22;6514;48.606;9.222;2023-11-18T00:06:18;4.50;99.90
12893;DHT22;6514;48.606;9.222;2023-11-18T00:08:45;4.50;99.90
12893;DHT22;6514;48.606;9.222;2023-11-18T00:11:12;4.50;99.90
12893;DHT22;6514;48.606;9.222;2023-11-18T00:13:39;4.50;99.90
12893;DHT22;6514;48.606;9.222;2023-11-18T00:16:08;4.50;99.90
12893;DHT22;6514;48.606;9.222;2023-11-18T00:18:38;4.40;99.90
12893;DHT22;6514;48.606;9.222;2023-11-18T00:21:06;4.40;99.90
12893;DHT22;6514;48.606;9.222;2023-11-18T00:23:34;4.40;99.90
12893;DHT22;6514;48.606;9.222;2023-11-18T00:26:01;4.40;99.90
12893;DHT22;6514;48.606;9.222;2023-11-18T00:28:28;4.40;99.90
12893;DHT22;6514;48.606;9.222;2023-11-18T00:30:54;4.40;99.90
12893;DHT22;6514;48.606;9.222;2023-11-18T00:33:21;4.40;99.90
12893;DHT22;6514;48.606;9.222;2023-11-18T00:35:48;4.30;99.90
12893;DHT22;6514;48.606;9.222;2023-11-18T00:38:16;4.30;99.90
12893;DHT22;6514;48.606;9.222;2023-11-18T00:40:44;4.20;99.90
12893;DHT22;6514;48.606;9.222;2023-11-18T00:43:10;4.00;99.90
12893;DHT22;6514;48.606;9.222;2023-11-18T00:45:37;3.90;99.90
12893;DHT22;6514;48.606;9.222;2023-11-18T00:48:05;3.90;99.90
12893;DHT22;6514;48.606;9.222;2023-11-18T00:50:31;3.90;99.90
12893;DHT22;6514;48.606;9.222;2023-11-18T00:52:59;3.90;99.90
12893;DHT22;6514;48.606;9.222;2023-11-18T00:55:27;3.90;99.90
12893;DHT22;6514;48.606;9.222;2023-11-18T00:57:54;3.90;99.90
12893;DHT22;6514;48.606;9.222;2023-11-18T01:00:22;3.90;99.90
12893;DHT22;6514;48.606;9.222;2023-11-18T01:02:49;3.90;99.90
12893;DHT22;6514;48.606;9.222;2023-11-18T01:05:16;4.00;99.90
12893;DHT22;6514;48.606;9.222;2023-11-18T01:07:43;4.10;99.90
12893;DHT22;6514;48.606;9.222;2023-11-18T01:10:10;4.10;99.90
12893;DHT22;6514;48.606;9.222;2023-11-18T01:12:38;4.10;99.90
12893;DHT22;6514;48.606;9.222;2023-11-18T01:15:06;4.20;99.90
12893;DHT22;6514;48.606;9.222;2023-11-18T01:17:35;4.20;99.90
12893;DHT22;6514;48.606;9.222;2023-11-18T01:20:02;4.20;99.90
12893;DHT22;6514;48.606;9.222;2023-11-18T01:22:34;4.30;99.90
12893;DHT22;6514;48.606;9.222;2023-11-18T01:25:01;4.40;99.90
12893;DHT22;6514;48.606;9.222;2023-11-18T01:27:28;4.40;99.90
12893;DHT22;6514;48.606;9.222;2023-11-18T01:29:56;4.50;99.90
12893;DHT22;6514;48.606;9.222;2023-11-18T01:32:23;4.50;99.90
12893;DHT22;6514;48.606;9.222;2023-11-18T01:34:51;4.50;99.90
12893;DHT22;6514;48.606;9.222;2023-11-18T01:37:19;4.50;99.90
12893;DHT22;6514;48.606;9.222;2023-11-18T01:39:48;4.60;99.90
12893;DHT22;6514;48.606;9.222;2023-11-18T01:42:15;4.60;99.90
12893;DHT22;6514;48.606;9.222;2023-11-18T01:44:42;4.60;99.90
12893;DHT22;6514;48.606;9.222;2023-11-18T01:47:10;4.60;99.90
12893;DHT22;6514;48.606;9.222;2023-11-18T01:49:38;4.60;99.90
12893;DHT22;6514;48.606;9.222;2023-11-18T01:52:06;4.60;99.90
12893;DHT22;6514;48.606;9.222;2023-11-18T01:54:34;4.60;99.90
12893;DHT22;6514;48.606;9.222;2023-11-18T01:57:03;4.60;99.90
12893;DHT22;6514;48.606;9.222;2023-11-18T01:59:31;4.60;99.90
12893;DHT22;6514;48.606;9.222;2023-11-18T02:01:59;4.60;99.90
12893;DHT22;6514;48.606;9.222;2023-11-18T02:04:28;4.60;99.90
12893;DHT22;6514;48.606;9.222;2023-11-18T02:06:57;4.70;99.90
12893;DHT22;6514;48.606;9.222;2023-11-18T02:09:24;4.60;99.90
12893;DHT22;6514;48.606;9.222;2023-11-18T02:11:57;4.60;99.90
12893;DHT22;6514;48.606;9.222;2023-11-18T02:14:27;4.60;99.90
12893;DHT22;6514;48.606;9.222;2023-11-18T02:16:59;4.50;99.90
12893;DHT22;6514;48.606;9.222;2023-11-18T02:19:29;4.50;99.90
12893;DHT22;6514;48.606;9.222;2023-11-18T02:21:57;4.50;99.90
12893;DHT22;6514;48.606;9.222;2023-11-18T02:24:27;4.50;99.90
12893;DHT22;6514;48.606;9.222;2023-11-18T02:26:59;4.50;99.90
12893;DHT22;6514;48.606;9.222;2023-11-18T02:29:27;4.60;99.90
12893;DHT22;6514;48.606;9.222;2023-11-18T02:31:59;4.60;99.90
12893;DHT22;6514;48.606;9.222;2023-11-18T02:34:30;4.60;99.90
12893;DHT22;6514;48.606;9.222;2023-11-18T02:37:03;4.60;99.90
12893;DHT22;6514;48.606;9.222;2023-11-18T02:39:36;4.60;99.90
12893;DHT22;6514;48.606;9.222;2023-11-18T02:42:10;4.50;99.90
12893;DHT22;6514;48.606;9.222;2023-11-18T02:44:39;4.60;99.90
12893;DHT22;6514;48.606;9.222;2023-11-18T02:47:07;4.60;99.90
12893;DHT22;6514;48.606;9.222;2023-11-18T02:49:34;4.50;99.90
12893;DHT22;6514;48.606;9.222;2023-11-18T02:52:01;4.50;99.90
12893;DHT22;6514;48.606;9.222;2023-11-18T02:54:30;4.50;99.90
12893;DHT22;6514;48.606;9.222;2023-11-18T02:56:57;4.50;99.90
12893;DHT22;6514;48.606;9.222;2023-11-18T02:59:25;4.50;99.90
12893;DHT22;6514;48.606;9.222;2023-11-18T03:01:55;4.40;99.90
12893;DHT22;6514;48.606;9.222;2023-11-18T03:04:22;4.40;99.90
12893;DHT22;6514;48.606;9.222;2023-11-18T03:06:50;4.30;99.90
12893;DHT22;6514;48.606;9.222;2023-11-18T03:09:17;4.30;99.90
12893;DHT22;6514;48.606;9.222;2023-11-18T03:11:44;4.20;99.90
12893;DHT22;6514;48.606;9.222;2023-11-18T03:14:11;4.10;99.90
12893;DHT22;6514;48.606;9.222;2023-11-18T03:16:39;4.00;99.90
12893;DHT22;6514;48.606;9.222;2023-11-18T03:19:06;3.90;99.90
12893;DHT22;6514;48.606;9.222;2023-11-18T03:21:34;3.80;99.90
12893;DHT22;6514;48.606;9.222;2023-11-18T03:24:01;3.70;99.90
12893;DHT22;6514;48.606;9.222;2023-11-18T03:26:27;3.60;99.90
12893;DHT22;6514;48.606;9.222;2023-11-18T03:28:54;3.60;99.90
12893;DHT22;6514;48.606;9.222;2023-11-18T03:31:21;3.50;99.90
12893;DHT22;6514;48.606;9.222;2023-11-18T03:33:49;3.40;99.90
12893;DHT22;6514;48.606;9.222;2023-11-18T03:36:17;3.40;99.90
12893;DHT22;6514;48.606;9.222;2023-11-18T03:38:44;3.30;99.90
12893;DHT22;6514;48.606;9.222;2023-11-18T03:41:11;3.20;99.90
12893;DHT22;6514;48.606;9.222;2023-11-18T03:43:38;3.20;99.90
12893;DHT22;6514;48.606;9.222;2023-11-18T03:46:05;3.10;99.90
12893;DHT22;6514;48.606;9.222;2023-11-18T03:48:33;3.00;99.90
12893;DHT22;6514;48.606;9.222;2023-11-18T03:51:01;2.90;99.90
12893;DHT22;6514;48.606;9.222;2023-11-18T03:53:29;2.90;99.90
12893;DHT22;6514;48.606;9.222;2023-11-18T03:55:55;2.90;99.90
12893;DHT22;6514;48.606;9.222;2023-11-18T03:58:23;2.80;99.90
12893;DHT22;6514;48.606;9.222;2023-11-18T04:00:49;2.80;99.90
12893;DHT22;6514;48.606;9.222;2023-11-18T04:03:16;2.80;99.90
12893;DHT22;6514;48.606;9.222;2023-11-18T04:05:44;2.80;99.90
12893;DHT22;6514;48.606;9.222;2023-11-18T04:08:12;2.70;99.90
12893;DHT22;6514;48.606;9.222;2023-11-18T04:10:39;2.70;99.90
12893;DHT22;6514;48.606;9.222;2023-11-18T04:13:05;2.60;99.90
12893;DHT22;6514;48.606;9.222;2023-11-18T04:15:32;2.60;99.90
12893;DHT22;6514;48.606;9.222;2023-11-18T04:18:00;2.70;99.90
12893;DHT22;6514;48.606;9.222;2023-11-18T04:20:27;2.70;99.90
12893;DHT22;6514;48.606;9.222;2023-11-18T04:22:54;2.70;99.90
12893;DHT22;6514;48.606;9.222;2023-11-18T04:25:22;2.80;99.90
12893;DHT22;6514;48.606;9.222;2023-11-18T04:27:50;2.80;99.90
12893;DHT22;6514;48.606;9.222;2023-11-18T04:30:17;2.80;99.90
12893;DHT22;6514;48.606;9.222;2023-11-18T04:32:44;2.90;99.90
12893;DHT22;6514;48.606;9.222;2023-11-18T04:35:11;2.90;99.90
12893;DHT22;6514;48.606;9.222;2023-11-18T04:37:38;2.90;99.90
12893;DHT22;6514;48.606;9.222;2023-11-18T04:40:08;2.90;99.90
12893;DHT22;6514;48.606;9.222;2023-11-18T04:42:39;2.90;99.90
12893;DHT22;6514;48.606;9.222;2023-11-18T04:45:07;3.00;99.90
12893;DHT22;6514;48.606;9.222;2023-11-18T04:47:35;3.00;99.90
12893;DHT22;6514;48.606;9.222;2023-11-18T04:50:03;3.00;99.90
12893;DHT22;6514;48.606;9.222;2023-11-18T04:52:30;3.00;99.90
12893;DHT22;6514;48.606;9.222;2023-11-18T04:55:00;3.00;99.90
12893;DHT22;6514;48.606;9.222;2023-11-18T04:57:27;3.00;99.90
12893;DHT22;6514;48.606;9.222;2023-11-18T04:59:55;3.00;99.90
12893;DHT22;6514;48.606;9.222;2023-11-18T05:02:22;3.00;99.90
12893;DHT22;6514;48.606;9.222;2023-11-18T05:04:49;3.00;99.90
12893;DHT22;6514;48.606;9.222;2023-11-18T05:07:16;3.00;99.90
12893;DHT22;6514;48.606;9.222;2023-11-18T05:09:44;3.00;99.90
12893;DHT22;6514;48.606;9.222;2023-11-18T05:12:11;3.00;99.90
12893;DHT22;6514;48.606;9.222;2023-11-18T05:14:38;3.10;99.90
12893;DHT22;6514;48.606;9.222;2023-11-18T05:17:06;3.20;99.90
12893;DHT22;6514;48.606;9.222;2023-11-18T05:19:32;3.30;99.90
12893;DHT22;6514;48.606;9.222;2023-11-18T05:21:59;3.30;99.90
12893;DHT22;6514;48.606;9.222;2023-11-18T05:24:26;3.40;99.90
12893;DHT22;6514;48.606;9.222;2023-11-18T05:26:53;3.40;99.90
12893;DHT22;6514;48.606;9.222;2023-11-18T05:29:21;3.50;99.90
12893;DHT22;6514;48.606;9.222;2023-11-18T05:31:48;3.40;99.90
12893;DHT22;6514;48.606;9.222;2023-11-18T05:34:16;3.60;99.90
12893;DHT22;6514;48.606;9.222;2023-11-18T05:36:46;3.60;99.90
12893;DHT22;6514;48.606;9.222;2023-11-18T05:39:16;3.60;99.90
12893;DHT22;6514;48.606;9.222;2023-11-18T05:41:45;3.60;99.90
12893;DHT22;6514;48.606;9.222;2023-11-18T05:44:15;3.60;99.90
12893;DHT22;6514;48.606;9.222;2023-11-18T05:46:45;3.70;99.90
12893;DHT22;6514;48.606;9.222;2023-11-18T05:49:13;3.70;99.90
12893;DHT22;6514;48.606;9.222;2023-11-18T05:51:44;3.70;99.90
12893;DHT22;6514;48.606;9.222;2023-11-18T05:54:11;3.80;99.90
12893;DHT22;6514;48.606;9.222;2023-11-18T05:56:38;3.80;99.90
12893;DHT22;6514;48.606;9.222;2023-11-18T05:59:05;3.80;99.90
12893;DHT22;6514;48.606;9.222;2023-11-18T06:01:34;3.80;99.90
12893;DHT22;6514;48.606;9.222;2023-11-18T06:04:02;3.80;99.90
12893;DHT22;6514;48.606;9.222;2023-11-18T06:06:29;3.80;99.90
12893;DHT22;6514;48.606;9.222;2023-11-18T06:08:58;3.70;99.90
12893;DHT22;6514;48.606;9.222;2023-11-18T06:11:30;3.70;99.90
12893;DHT22;6514;48.606;9.222;2023-11-18T06:13:58;3.70;99.90
12893;DHT22;6514;48.606;9.222;2023-11-18T06:16:25;3.70;99.90
12893;DHT22;6514;48.606;9.222;2023-11-18T06:18:53;3.70;99.90
12893;DHT22;6514;48.606;9.222;2023-11-18T06:21:21;3.80;99.90
12893;DHT22;6514;48.606;9.222;2023-11-18T06:23:50;3.80;99.90
12893;DHT22;6514;48.606;9.222;2023-11-18T06:26:18;3.80;99.90
12893;DHT22;6514;48.606;9.222;2023-11-18T06:28:46;3.80;99.90
12893;DHT22;6514;48.606;9.222;2023-11-18T06:31:13;3.90;99.90
12893;DHT22;6514;48.606;9.222;2023-11-18T06:33:40;3.90;99.90
12893;DHT22;6514;48.606;9.222;2023-11-18T06:36:09;3.90;99.90
12893;DHT22;6514;48.606;9.222;2023-11-18T06:38:36;3.90;99.90
12893;DHT22;6514;48.606;9.222;2023-11-18T06:41:04;3.90;99.90
12893;DHT22;6514;48.606;9.222;2023-11-18T06:43:36;3.90;99.90
12893;DHT22;6514;48.606;9.222;2023-11-18T06:46:20;3.80;99.90
12893;DHT22;6514;48.606;9.222;2023-11-18T06:48:47;3.70;99.90
12893;DHT22;6514;48.606;9.222;2023-11-18T06:51:14;3.60;99.90
12893;DHT22;6514;48.606;9.222;2023-11-18T06:53:42;3.60;99.90
12893;DHT22;6514;48.606;9.222;2023-11-18T06:56:08;3.60;99.90
12893;DHT22;6514;48.606;9.222;2023-11-18T06:58:38;3.60;99.90
12893;DHT22;6514;48.606;9.222;2023-11-18T07:01:06;3.70;99.90
12893;DHT22;6514;48.606;9.222;2023-11-18T07:03:33;3.70;99.90
12893;DHT22;6514;48.606;9.222;2023-11-18T07:06:00;3.70;99.90
12893;DHT22;6514;48.606;9.222;2023-11-18T07:08:27;3.90;99.90
12893;DHT22;6514;48.606;9.222;2023-11-18T07:10:54;4.10;99.90
12893;DHT22;6514;48.606;9.222;2023-11-18T07:13:22;4.20;99.90
12893;DHT22;6514;48.606;9.222;2023-11-18T07:15:51;4.40;99.90
12893;DHT22;6514;48.606;9.222;2023-11-18T07:18:19;4.60;99.90
12893;DHT22;6514;48.606;9.222;2023-11-18T07:20:47;4.80;99.90
12893;DHT22;6514;48.606;9.222;2023-11-18T07:23:16;5.00;99.90
12893;DHT22;6514;48.606;9.222;2023-11-18T07:25:43;5.20;99.90
12893;DHT22;6514;48.606;9.222;2023-11-18T07:28:10;5.40;99.90
12893;DHT22;6514;48.606;9.222;2023-11-18T07:30:37;5.50;99.90
12893;DHT22;6514;48.606;9.222;2023-11-18T07:33:05;5.80;99.90
12893;DHT22;6514;48.606;9.222;2023-11-18T07:35:34;6.00;99.90
12893;DHT22;6514;48.606;9.222;2023-11-18T07:38:02;6.10;99.90
12893;DHT22;6514;48.606;9.222;2023-11-18T07:40:29;6.20;99.90
12893;DHT22;6514;48.606;9.222;2023-11-18T07:42:58;6.30;99.90
12893;DHT22;6514;48.606;9.222;2023-11-18T07:45:27;6.30;99.90
12893;DHT22;6514;48.606;9.222;2023-11-18T07:47:54;6.30;99.90
12893;DHT22;6514;48.606;9.222;2023-11-18T07:50:23;6.30;99.90
12893;DHT22;6514;48.606;9.222;2023-11-18T07:52:50;6.40;99.90
12893;DHT22;6514;48.606;9.222;2023-11-18T07:55:17;6.40;99.90
12893;DHT22;6514;48.606;9.222;2023-11-18T07:57:44;6.40;99.90
12893;DHT22;6514;48.606;9.222;2023-11-18T08:00:12;6.40;99.90
12893;DHT22;6514;48.606;9.222;2023-11-18T08:02:40;6.50;99.90
12893;DHT22;6514;48.606;9.222;2023-11-18T08:05:07;6.60;99.90
12893;DHT22;6514;48.606;9.222;2023-11-18T08:07:40;6.60;99.90
12893;DHT22;6514;48.606;9.222;2023-11-18T08:10:07;6.60;99.90
12893;DHT22;6514;48.606;9.222;2023-11-18T08:12:38;6.50;99.90
12893;DHT22;6514;48.606;9.222;2023-11-18T08:15:06;6.50;99.90
12893;DHT22;6514;48.606;9.222;2023-11-18T08:17:34;6.50;99.90
12893;DHT22;6514;48.606;9.222;2023-11-18T08:20:01;6.60;99.90
12893;DHT22;6514;48.606;9.222;2023-11-18T08:22:32;6.60;99.90
12893;DHT22;6514;48.606;9.222;2023-11-18T08:25:01;6.70;99.90
12893;DHT22;6514;48.606;9.222;2023-11-18T08:27:33;6.60;99.90
12893;DHT22;6514;48.606;9.222;2023-11-18T08:30:01;6.80;99.90
12893;DHT22;6514;48.606;9.222;2023-11-18T08:32:31;6.80;99.90
12893;DHT22;6514;48.606;9.222;2023-11-18T08:34:58;6.70;99.90
12893;DHT22;6514;48.606;9.222;2023-11-18T08:37:25;6.60;99.90
12893;DHT22;6514;48.606;9.222;2023-11-18T08:39:53;6.60;99.90
12893;DHT22;6514;48.606;9.222;2023-11-18T08:42:21;6.60;99.90
12893;DHT22;6514;48.606;9.222;2023-11-18T08:44:48;6.60;99.90
12893;DHT22;6514;48.606;9.222;2023-11-18T08:47:15;6.50;99.90
12893;DHT22;6514;48.606;9.222;2023-11-18T08:49:43;6.50;99.90
12893;DHT22;6514;48.606;9.222;2023-11-18T08:52:11;6.50;99.90
12893;DHT22;6514;48.606;9.222;2023-11-18T08:54:38;6.60;99.90
12893;DHT22;6514;48.606;9.222;2023-11-18T08:57:26;6.60;99.90
12893;DHT22;6514;48.606;9.222;2023-11-18T08:59:59;6.70;99.90
12893;DHT22;6514;48.606;9.222;2023-11-18T09:02:32;6.80;99.90
12893;DHT22;6514;48.606;9.222;2023-11-18T09:05:03;6.80;99.90
12893;DHT22;6514;48.606;9.222;2023-11-18T09:07:38;7.00;99.90
12893;DHT22;6514;48.606;9.222;2023-11-18T09:10:05;7.00;99.90
12893;DHT22;6514;48.606;9.222;2023-11-18T09:12:35;7.20;99.90
12893;DHT22;6514;48.606;9.222;2023-11-18T09:15:02;7.30;99.90
12893;DHT22;6514;48.606;9.222;2023-11-18T09:17:29;7.40;99.90
12893;DHT22;6514;48.606;9.222;2023-11-18T09:19:56;7.50;99.90
12893;DHT22;6514;48.606;9.222;2023-11-18T09:22:23;7.70;99.90
12893;DHT22;6514;48.606;9.222;2023-11-18T09:24:50;7.80;99.90
12893;DHT22;6514;48.606;9.222;2023-11-18T09:27:17;7.80;99.90
12893;DHT22;6514;48.606;9.222;2023-11-18T09:29:45;7.90;99.90
12893;DHT22;6514;48.606;9.222;2023-11-18T09:32:11;7.90;99.90
12893;DHT22;6514;48.606;9.222;2023-11-18T09:34:40;8.00;99.90
12893;DHT22;6514;48.606;9.222;2023-11-18T09:37:07;8.10;99.90
12893;DHT22;6514;48.606;9.222;2023-11-18T09:39:35;8.20;99.90
12893;DHT22;6514;48.606;9.222;2023-11-18T09:42:05;8.40;99.90
12893;DHT22;6514;48.606;9.222;2023-11-18T09:44:35;8.40;99.90
12893;DHT22;6514;48.606;9.222;2023-11-18T09:47:07;8.50;99.90
12893;DHT22;6514;48.606;9.222;2023-11-18T09:49:40;8.60;99.90
12893;DHT22;6514;48.606;9.222;2023-11-18T09:52:15;8.60;99.90
12893;DHT22;6514;48.606;9.222;2023-11-18T09:54:50;8.80;99.90
12893;DHT22;6514;48.606;9.222;2023-11-18T09:57:23;8.80;99.90
12893;DHT22;6514;48.606;9.222;2023-11-18T09:59:57;8.80;99.90
12893;DHT22;6514;48.606;9.222;2023-11-18T10:02:26;8.80;99.90
12893;DHT22;6514;48.606;9.222;2023-11-18T10:04:56;8.80;99.90
12893;DHT22;6514;48.606;9.222;2023-11-18T10:07:26;8.80;99.90
12893;DHT22;6514;48.606;9.222;2023-11-18T10:09:54;8.90;99.90
12893;DHT22;6514;48.606;9.222;2023-11-18T10:12:23;9.00;99.90
12893;DHT22;6514;48.606;9.222;2023-11-18T10:14:52;9.10;99.90
12893;DHT22;6514;48.606;9.222;2023-11-18T10:17:23;9.20;99.90
12893;DHT22;6514;48.606;9.222;2023-11-18T10:19:56;9.40;99.90
12893;DHT22;6514;48.606;9.222;2023-11-18T10:22:26;9.50;99.90
12893;DHT22;6514;48.606;9.222;2023-11-18T10:24:53;9.50;99.90
12893;DHT22;6514;48.606;9.222;2023-11-18T10:27:22;9.60;99.90
12893;DHT22;6514;48.606;9.222;2023-11-18T10:29:54;9.50;99.90
12893;DHT22;6514;48.606;9.222;2023-11-18T10:32:21;9.70;99.90
12893;DHT22;6514;48.606;9.222;2023-11-18T10:34:53;9.80;99.90
12893;DHT22;6514;48.606;9.222;2023-11-18T10:37:22;9.90;99.90
12893;DHT22;6514;48.606;9.222;2023-11-18T10:39:49;9.90;99.90
12893;DHT22;6514;48.606;9.222;2023-11-18T10:42:17;9.80;99.90
12893;DHT22;6514;48.606;9.222;2023-11-18T10:44:54;9.90;99.90
12893;DHT22;6514;48.606;9.222;2023-11-18T10:47:24;9.90;99.90
12893;DHT22;6514;48.606;9.222;2023-11-18T10:49:52;10.00;99.90
12893;DHT22;6514;48.606;9.222;2023-11-18T10:52:23;9.90;99.90
12893;DHT22;6514;48.606;9.222;2023-11-18T10:54:51;9.90;99.90
12893;DHT22;6514;48.606;9.222;2023-11-18T10:57:20;9.90;99.90
12893;DHT22;6514;48.606;9.222;2023-11-18T10:59:59;9.90;99.90
12893;DHT22;6514;48.606;9.222;2023-11-18T11:02:30;9.90;99.90
12893;DHT22;6514;48.606;9.222;2023-11-18T11:05:00;10.00;99.90
12893;DHT22;6514;48.606;9.222;2023-11-18T11:07:29;10.00;99.90
12893;DHT22;6514;48.606;9.222;2023-11-18T11:09:57;10.00;99.90
12893;DHT22;6514;48.606;9.222;2023-11-18T11:12:25;10.10;99.90
12893;DHT22;6514;48.606;9.222;2023-11-18T11:14:59;10.10;99.90
12893;DHT22;6514;48.606;9.222;2023-11-18T11:17:30;10.10;99.90
12893;DHT22;6514;48.606;9.222;2023-11-18T11:20:04;10.00;99.90
12893;DHT22;6514;48.606;9.222;2023-11-18T11:22:53;9.90;99.90
12893;DHT22;6514;48.606;9.222;2023-11-18T11:25:29;9.90;99.90
12893;DHT22;6514;48.606;9.222;2023-11-18T11:28:06;9.80;99.90
12893;DHT22;6514;48.606;9.222;2023-11-18T11:30:42;9.70;99.90
12893;DHT22;6514;48.606;9.222;2023-11-18T11:33:18;9.70;99.90
12893;DHT22;6514;48.606;9.222;2023-11-18T11:35:53;9.70;99.90
12893;DHT22;6514;48.606;9.222;2023-11-18T11:38:24;9.70;99.90
12893;DHT22;6514;48.606;9.222;2023-11-18T11:40:52;9.80;99.90
12893;DHT22;6514;48.606;9.222;2023-11-18T11:43:21;9.80;99.90
12893;DHT22;6514;48.606;9.222;2023-11-18T11:45:49;9.80;99.90
12893;DHT22;6514;48.606;9.222;2023-11-18T11:48:18;9.80;99.90
12893;DHT22;6514;48.606;9.222;2023-11-18T11:51:00;9.90;99.90
12893;DHT22;6514;48.606;9.222;2023-11-18T11:53:34;9.90;99.90
12893;DHT22;6514;48.606;9.222;2023-11-18T11:56:05;9.90;99.90
12893;DHT22;6514;48.606;9.222;2023-11-18T11:58:34;9.90;99.90
12893;DHT22;6514;48.606;9.222;2023-11-18T12:01:15;10.00;99.90
12893;DHT22;6514;48.606;9.222;2023-11-18T12:03:43;9.90;99.90
12893;DHT22;6514;48.606;9.222;2023-11-18T12:06:13;9.90;99.90
12893;DHT22;6514;48.606;9.222;2023-11-18T12:08:43;9.90;99.90
12893;DHT22;6514;48.606;9.222;2023-11-18T12:11:10;9.80;99.90
12893;DHT22;6514;48.606;9.222;2023-11-18T12:13:38;9.90;99.90
12893;DHT22;6514;48.606;9.222;2023-11-18T12:16:10;9.80;99.90
12893;DHT22;6514;48.606;9.222;2023-11-18T12:18:41;9.80;99.90
12893;DHT22;6514;48.606;9.222;2023-11-18T12:21:09;9.70;99.90
12893;DHT22;6514;48.606;9.222;2023-11-18T12:26:47;9.60;99.90
12893;DHT22;6514;48.606;9.222;2023-11-18T12:29:30;9.50;99.90
12893;DHT22;6514;48.606;9.222;2023-11-18T12:31:57;9.40;99.90
12893;DHT22;6514;48.606;9.222;2023-11-18T12:34:24;9.30;99.90
12893;DHT22;6514;48.606;9.222;2023-11-18T12:37:17;9.30;99.90
12893;DHT22;6514;48.606;9.222;2023-11-18T12:40:30;9.20;99.90
12893;DHT22;6514;48.606;9.222;2023-11-18T12:43:07;9.10;99.90
12893;DHT22;6514;48.606;9.222;2023-11-18T12:45:44;9.00;99.90
12893;DHT22;6514;48.606;9.222;2023-11-18T12:48:21;9.00;99.90
12893;DHT22;6514;48.606;9.222;2023-11-18T12:50:53;8.90;99.90
12893;DHT22;6514;48.606;9.222;2023-11-18T12:53:22;8.90;99.90
12893;DHT22;6514;48.606;9.222;2023-11-18T12:55:50;8.90;99.90
12893;DHT22;6514;48.606;9.222;2023-11-18T12:58:20;8.80;99.90
12893;DHT22;6514;48.606;9.222;2023-11-18T13:00:48;8.80;99.90
12893;DHT22;6514;48.606;9.222;2023-11-18T13:03:15;8.80;99.90
12893;DHT22;6514;48.606;9.222;2023-11-18T13:05:43;8.80;99.90
12893;DHT22;6514;48.606;9.222;2023-11-18T13:08:11;8.80;99.90
12893;DHT22;6514;48.606;9.222;2023-11-18T13:10:38;8.70;99.90
12893;DHT22;6514;48.606;9.222;2023-11-18T13:13:06;8.70;99.90
12893;DHT22;6514;48.606;9.222;2023-11-18T13:15:36;8.60;99.90
12893;DHT22;6514;48.606;9.222;2023-11-18T13:18:04;8.50;99.90
12893;DHT22;6514;48.606;9.222;2023-11-18T13:20:32;8.50;99.90
12893;DHT22;6514;48.606;9.222;2023-11-18T13:23:01;8.40;99.90
12893;DHT22;6514;48.606;9.222;2023-11-18T13:25:34;8.40;99.90
12893;DHT22;6514;48.606;9.222;2023-11-18T13:28:03;8.30;99.90
12893;DHT22;6514;48.606;9.222;2023-11-18T13:30:30;8.30;99.90
12893;DHT22;6514;48.606;9.222;2023-11-18T13:32:59;8.30;99.90
12893;DHT22;6514;48.606;9.222;2023-11-18T13:35:27;8.30;99.90
12893;DHT22;6514;48.606;9.222;2023-11-18T13:37:54;8.30;99.90
12893;DHT22;6514;48.606;9.222;2023-11-18T13:40:21;8.20;99.90
12893;DHT22;6514;48.606;9.222;2023-11-18T13:43:01;8.20;99.90
12893;DHT22;6514;48.606;9.222;2023-11-18T13:45:28;8.20;99.90
12893;DHT22;6514;48.606;9.222;2023-11-18T13:47:56;8.20;99.90
12893;DHT22;6514;48.606;9.222;2023-11-18T13:50:24;8.10;99.90
12893;DHT22;6514;48.606;9.222;2023-11-18T13:52:52;8.10;99.90
12893;DHT22;6514;48.606;9.222;2023-11-18T13:55:19;8.10;99.90
12893;DHT22;6514;48.606;9.222;2023-11-18T13:57:53;8.10;99.90
12893;DHT22;6514;48.606;9.222;2023-11-18T14:00:22;8.00;99.90
12893;DHT22;6514;48.606;9.222;2023-11-18T14:02:53;8.00;99.90
12893;DHT22;6514;48.606;9.222;2023-11-18T14:05:21;8.00;99.90
12893;DHT22;6514;48.606;9.222;2023-11-18T14:07:51;8.00;99.90
12893;DHT22;6514;48.606;9.222;2023-11-18T14:10:21;8.00;99.90
12893;DHT22;6514;48.606;9.222;2023-11-18T14:13:01;7.90;99.90
12893;DHT22;6514;48.606;9.222;2023-11-18T14:15:29;7.90;99.90
12893;DHT22;6514;48.606;9.222;2023-11-18T14:17:56;8.00;99.90
12893;DHT22;6514;48.606;9.222;2023-11-18T14:20:23;7.90;99.90
12893;DHT22;6514;48.606;9.222;2023-11-18T14:22:51;7.90;99.90
12893;DHT22;6514;48.606;9.222;2023-11-18T14:25:19;7.90;99.90
12893;DHT22;6514;48.606;9.222;2023-11-18T14:27:49;7.80;99.90
12893;DHT22;6514;48.606;9.222;2023-11-18T14:30:16;7.80;99.90
12893;DHT22;6514;48.606;9.222;2023-11-18T14:32:45;7.80;99.90
12893;DHT22;6514;48.606;9.222;2023-11-18T14:35:12;7.80;99.90
12893;DHT22;6514;48.606;9.222;2023-11-18T14:37:42;7.70;99.90
12893;DHT22;6514;48.606;9.222;2023-11-18T14:40:12;7.60;99.90
12893;DHT22;6514;48.606;9.222;2023-11-18T14:42:41;7.50;99.90
12893;DHT22;6514;48.606;9.222;2023-11-18T14:45:10;7.50;99.90
12893;DHT22;6514;48.606;9.222;2023-11-18T14:47:37;7.40;99.90
12893;DHT22;6514;48.606;9.222;2023-11-18T14:50:05;7.30;99.90
12893;DHT22;6514;48.606;9.222;2023-11-18T14:52:40;7.30;99.90
12893;DHT22;6514;48.606;9.222;2023-11-18T14:55:09;7.30;99.90
12893;DHT22;6514;48.606;9.222;2023-11-18T14:57:39;7.30;99.90
12893;DHT22;6514;48.606;9.222;2023-11-18T15:00:07;7.30;99.90
12893;DHT22;6514;48.606;9.222;2023-11-18T15:02:35;7.30;99.90
12893;DHT22;6514;48.606;9.222;2023-11-18T15:05:02;7.20;99.90
12893;DHT22;6514;48.606;9.222;2023-11-18T15:07:30;7.20;99.90
12893;DHT22;6514;48.606;9.222;2023-11-18T15:09:57;7.20;99.90
12893;DHT22;6514;48.606;9.222;2023-11-18T15:12:24;7.20;99.90
12893;DHT22;6514;48.606;9.222;2023-11-18T15:14:52;7.30;99.90
12893;DHT22;6514;48.606;9.222;2023-11-18T15:17:19;7.20;99.90
12893;DHT22;6514;48.606;9.222;2023-11-18T15:19:47;7.20;99.90
12893;DHT22;6514;48.606;9.222;2023-11-18T15:22:16;7.30;99.90
12893;DHT22;6514;48.606;9.222;2023-11-18T15:24:43;7.30;99.90
12893;DHT22;6514;48.606;9.222;2023-11-18T15:27:09;7.30;99.90
12893;DHT22;6514;48.606;9.222;2023-11-18T15:29:37;7.20;99.90
12893;DHT22;6514;48.606;9.222;2023-11-18T15:32:12;7.20;99.90
12893;DHT22;6514;48.606;9.222;2023-11-18T15:34:39;7.20;99.90
12893;DHT22;6514;48.606;9.222;2023-11-18T15:37:05;7.20;99.90
12893;DHT22;6514;48.606;9.222;2023-11-18T15:39:32;7.20;99.90
12893;DHT22;6514;48.606;9.222;2023-11-18T15:41:59;7.20;99.90
12893;DHT22;6514;48.606;9.222;2023-11-18T15:44:26;7.20;99.90
12893;DHT22;6514;48.606;9.222;2023-11-18T15:46:54;7.20;99.90
12893;DHT22;6514;48.606;9.222;2023-11-18T15:49:22;7.20;99.90
12893;DHT22;6514;48.606;9.222;2023-11-18T15:51:50;7.20;99.90
12893;DHT22;6514;48.606;9.222;2023-11-18T15:54:17;7.20;99.90
12893;DHT22;6514;48.606;9.222;2023-11-18T15:56:44;7.20;99.90
12893;DHT22;6514;48.606;9.222;2023-11-18T15:59:10;7.10;99.90
12893;DHT22;6514;48.606;9.222;2023-11-18T16:01:37;7.20;99.90
12893;DHT22;6514;48.606;9.222;2023-11-18T16:04:04;7.10;99.90
12893;DHT22;6514;48.606;9.222;2023-11-18T16:06:33;7.20;99.90
12893;DHT22;6514;48.606;9.222;2023-11-18T16:09:00;7.10;99.90
12893;DHT22;6514;48.606;9.222;2023-11-18T16:11:28;7.10;99.90
12893;DHT22;6514;48.606;9.222;2023-11-18T16:13:55;7.10;99.90
12893;DHT22;6514;48.606;9.222;2023-11-18T16:16:24;7.10;99.90